Time;durP1;ratioP1;P1;durP2;ratioP2;P2;SDS_P1;SDS_P2;PMS_P1;PMS_P2;Temp;Humidity;BMP_temperature;BMP_pressure;BME280_temperature;BME280_humidity;BME280_pressure;Samples;Min_cycle;Max_cycle;Signal;HPM_P1;HPM_P2
2022/02/03 00:00:55;;;;;;;1.55;0.70;;;;;;;;;;5094859;28;20466;-66
2022/02/03 00:03:43;;;;;;;1.08;0.50;;;;;;;;;;5088957;28;20051;-67
2022/02/03 00:06:12;;;;;;;0.95;0.50;;;;;;;;;;5088589;28;20069;-67
2022/02/03 00:09:19;;;;;;;0.65;0.32;;;;;;;;;;5090040;28;20020;-68
2022/02/03 00:17:03;;;;;;;1.55;0.57;;;;;;;;;;5090565;28;20446;-67
2022/02/03 00:22:52;;;;;;;1.10;0.63;;;;;;;;;;5028597;28;20034;-66
2022/02/03 00:25:27;;;;;;;0.82;0.50;;;;;;;;;;5082879;28;20105;-66
2022/02/03 00:28:13;;;;;;;1.15;0.70;;;;;;;;;;5087685;28;20027;-66
2022/02/03 00:35:47;;;;;;;0.55;0.30;;;;;;;;;;5088733;28;20044;-67
2022/02/03 00:49:16;;;;;;;0.80;0.40;;;;;;;;;;5087216;28;20097;-67
2022/02/03 00:51:48;;;;;;;0.63;0.47;;;;;;;;;;5088120;28;20028;-67
2022/02/03 00:54:15;;;;;;;0.40;0.30;;;;;;;;;;5088325;28;20028;-67
2022/02/03 00:56:54;;;;;;;1.27;0.50;;;;;;;;;;5084728;28;20471;-67
2022/02/03 00:59:39;;;;;;;1.02;0.60;;;;;;;;;;5087715;28;20082;-66
2022/02/03 01:02:08;;;;;;;1.17;0.50;;;;;;;;;;5091149;28;20020;-66
2022/02/03 01:04:33;;;;;;;;;;;;;;;;;;5088185;28;20060;-67
2022/02/03 01:07:02;;;;;;;0.60;0.20;;;;;;;;;;5087605;28;19946;-66
2022/02/03 01:09:29;;;;;;;1.33;0.60;;;;;;;;;;5086975;28;20020;-66
2022/02/03 01:12:46;;;;;;;2.72;0.40;;;;;;;;;;5087721;28;20052;-66
2022/02/03 01:17:44;;;;;;;0.52;0.30;;;;;;;;;;5089231;28;20078;-67
2022/02/03 01:44:29;;;;;;;0.70;0.50;;;;;;;;;;5086888;28;20035;-67
2022/02/03 01:47:05;;;;;;;0.73;0.32;;;;;;;;;;5088252;28;20028;-67
2022/02/03 01:52:30;;;;;;;0.93;0.30;;;;;;;;;;5087200;28;20066;-66
2022/02/03 01:54:57;;;;;;;0.63;0.30;;;;;;;;;;5086862;28;20103;-67
2022/02/03 01:57:25;;;;;;;0.80;0.32;;;;;;;;;;5086694;28;20085;-67
2022/02/03 01:59:58;;;;;;;0.68;0.40;;;;;;;;;;5086870;28;20040;-67
2022/02/03 02:02:28;;;;;;;0.40;0.35;;;;;;;;;;5089563;28;20476;-67
2022/02/03 02:05:02;;;;;;;0.30;0.30;;;;;;;;;;5088515;28;20372;-67
2022/02/03 02:07:31;;;;;;;0.55;0.30;;;;;;;;;;5086674;28;20671;-67
2022/02/03 02:12:57;;;;;;;0.20;0.10;;;;;;;;;;5086614;28;20032;-66
2022/02/03 02:18:35;;;;;;;1.73;0.35;;;;;;;;;;5086835;28;20081;-67
2022/02/03 02:37:55;;;;;;;0.88;0.40;;;;;;;;;;5086495;28;20052;-66
2022/02/03 02:43:16;;;;;;;0.93;0.50;;;;;;;;;;5086297;28;20040;-66
2022/02/03 02:45:48;;;;;;;0.10;0.10;;;;;;;;;;5086126;28;20099;-66
2022/02/03 02:48:24;;;;;;;0.75;0.50;;;;;;;;;;5085700;28;20621;-66
2022/02/03 02:51:04;;;;;;;0.40;0.20;;;;;;;;;;5070653;28;20492;-66
2022/02/03 03:37:09;;;;;;;0.47;0.10;;;;;;;;;;5089821;28;20686;-66
2022/02/03 03:39:43;;;;;;;0.30;0.28;;;;;;;;;;5088736;28;20078;-67
2022/02/03 03:42:14;;;;;;;0.55;0.20;;;;;;;;;;5089976;28;20048;-67
2022/02/03 03:44:41;;;;;;;0.22;0.10;;;;;;;;;;5090610;28;20099;-67
2022/02/03 03:47:11;;;;;;;0.45;0.10;;;;;;;;;;5093139;28;20024;-67
2022/02/03 03:49:44;;;;;;;0.40;0.28;;;;;;;;;;5089252;28;20024;-67
2022/02/03 03:52:19;;;;;;;0.28;0.13;;;;;;;;;;5089099;28;20119;-66
2022/02/03 03:55:00;;;;;;;0.38;0.28;;;;;;;;;;5088258;28;20028;-67
2022/02/03 03:57:45;;;;;;;2.72;0.20;;;;;;;;;;5088687;28;20114;-67
2022/02/03 04:42:47;;;;;;;0.20;0.20;;;;;;;;;;5084100;28;20024;-68
2022/02/03 05:02:46;;;;;;;0.10;0.10;;;;;;;;;;5085878;28;20291;-67
2022/02/03 05:11:10;;;;;;;0.32;0.20;;;;;;;;;;5090515;28;20032;-68
2022/02/03 05:25:02;;;;;;;1.08;0.40;;;;;;;;;;5087518;28;20043;-68
2022/02/03 05:44:31;;;;;;;0.32;0.20;;;;;;;;;;5090971;28;20135;-68
2022/02/03 05:47:38;;;;;;;0.10;0.10;;;;;;;;;;5088926;28;20111;-67
2022/02/03 06:01:00;;;;;;;0.28;0.20;;;;;;;;;;5045269;28;20512;-68
2022/02/03 06:01:50;;;;;;;1.25;0.40;;;;;;;;;;5086472;28;20113;-67
2022/02/03 06:04:27;;;;;;;0.93;0.40;;;;;;;;;;5086532;28;20032;-67
2022/02/03 06:15:02;;;;;;;2.97;0.57;;;;;;;;;;5049795;28;20029;-67
2022/02/03 06:17:37;;;;;;;1.27;0.63;;;;;;;;;;5087786;28;20032;-67
2022/02/03 06:22:53;;;;;;;1.58;0.63;;;;;;;;;;5089428;28;20051;-67
2022/02/03 06:27:48;;;;;;;3.97;1.40;;;;;;;;;;5086534;28;20032;-67
2022/02/03 06:30:18;;;;;;;7.63;3.60;;;;;;;;;;5086137;28;20031;-67
2022/02/03 06:32:44;;;;;;;5.38;2.15;;;;;;;;;;5080403;28;20036;-67
2022/02/03 06:35:11;;;;;;;6.10;2.40;;;;;;;;;;5088629;28;20090;-67
2022/02/03 06:37:37;;;;;;;7.32;3.88;;;;;;;;;;5090692;28;20032;-67
2022/02/03 06:40:04;;;;;;;6.63;3.55;;;;;;;;;;5089744;28;20028;-67
2022/02/03 06:42:30;;;;;;;5.55;2.90;;;;;;;;;;5090616;28;20676;-67
2022/02/03 06:45:04;;;;;;;6.95;3.33;;;;;;;;;;5090500;28;20087;-68
2022/02/03 06:47:45;;;;;;;15.45;6.40;;;;;;;;;;5092558;28;20028;-67
2022/02/03 06:52:52;;;;;;;8.82;3.55;;;;;;;;;;5091895;28;20036;-67
2022/02/03 06:55:26;;;;;;;3.92;1.67;;;;;;;;;;5090213;28;20028;-69
2022/02/03 06:58:00;;;;;;;3.22;1.42;;;;;;;;;;5091103;28;20027;-67
2022/02/03 07:02:58;;;;;;;2.35;1.17;;;;;;;;;;5091425;28;20032;-66
2022/02/03 07:05:24;;;;;;;;;;;;;;;;;;5092440;28;20032;-66
2022/02/03 07:07:50;;;;;;;3.47;1.50;;;;;;;;;;5090981;28;19914;-66
2022/02/03 07:10:16;;;;;;;4.43;1.85;;;;;;;;;;5089884;28;20051;-66
2022/02/03 07:12:42;;;;;;;7.15;3.17;;;;;;;;;;5091853;28;20405;-67
2022/02/03 07:15:09;;;;;;;4.50;2.15;;;;;;;;;;5089957;28;20498;-67
2022/02/03 07:17:36;;;;;;;3.22;1.20;;;;;;;;;;5089843;28;20717;-67
2022/02/03 07:20:05;;;;;;;3.08;1.10;;;;;;;;;;5093430;28;20024;-67
2022/02/03 07:22:31;;;;;;;1.70;0.90;;;;;;;;;;5089756;28;20138;-67
2022/02/03 07:24:57;;;;;;;1.95;1.20;;;;;;;;;;5088583;28;20111;-67
2022/02/03 07:27:24;;;;;;;1.92;0.90;;;;;;;;;;5089438;28;20032;-67
2022/02/03 07:29:50;;;;;;;1.75;0.90;;;;;;;;;;5089534;28;20036;-67
2022/02/03 07:32:16;;;;;;;1.52;0.80;;;;;;;;;;5092070;28;20049;-67
2022/02/03 07:34:42;;;;;;;2.30;1.20;;;;;;;;;;5091069;28;20383;-67
2022/02/03 07:37:08;;;;;;;0.98;0.70;;;;;;;;;;5089952;28;20036;-67
2022/02/03 07:39:36;;;;;;;3.28;1.70;;;;;;;;;;5089188;28;20395;-67
2022/02/03 07:42:02;;;;;;;2.17;1.20;;;;;;;;;;5090247;28;20197;-67
2022/02/03 07:44:28;;;;;;;5.38;2.60;;;;;;;;;;5091513;28;20031;-67
2022/02/03 07:46:54;;;;;;;14.95;6.72;;;;;;;;;;5090790;28;20024;-62
2022/02/03 07:49:20;;;;;;;10.48;6.13;;;;;;;;;;5088177;28;20115;-63
2022/02/03 07:51:46;;;;;;;9.48;4.93;;;;;;;;;;5088896;28;20036;-61
2022/02/03 07:54:12;;;;;;;4.90;2.72;;;;;;;;;;5087788;28;20504;-61
2022/02/03 07:56:38;;;;;;;5.55;2.92;;;;;;;;;;5089905;28;20050;-61
2022/02/03 07:59:05;;;;;;;5.22;2.50;;;;;;;;;;5090460;28;20107;-61
2022/02/03 08:01:31;;;;;;;4.20;1.98;;;;;;;;;;5089075;28;20447;-62
2022/02/03 08:04:01;;;;;;;4.10;2.05;;;;;;;;;;5088475;28;20035;-60
2022/02/03 08:06:31;;;;;;;2.60;1.40;;;;;;;;;;5088777;28;20491;-61
2022/02/03 08:09:05;;;;;;;5.57;3.05;;;;;;;;;;5088861;28;20131;-61
2022/02/03 08:11:36;;;;;;;7.10;3.33;;;;;;;;;;5090115;28;20058;-60
2022/02/03 08:19:43;;;;;;;6.47;3.22;;;;;;;;;;5088862;28;20453;-61
2022/02/03 08:22:05;;;;;;;9.90;3.45;;;;;;;;;;5087946;28;20028;-61
2022/02/03 08:25:02;;;;;;;3.85;2.03;;;;;;;;;;5088448;28;20383;-61
2022/02/03 08:30:20;;;;;;;5.22;2.35;;;;;;;;;;5088583;28;20036;-61
2022/02/03 08:32:50;;;;;;;2.88;1.60;;;;;;;;;;5073004;28;20039;-61
2022/02/03 08:37:58;;;;;;;2.42;1.58;;;;;;;;;;5090812;28;20024;-61
2022/02/03 08:40:43;;;;;;;3.45;1.98;;;;;;;;;;5087905;28;20043;-61
2022/02/03 08:43:09;;;;;;;3.28;1.88;;;;;;;;;;5087983;28;20039;-61
2022/02/03 08:45:35;;;;;;;2.75;1.70;;;;;;;;;;5087999;28;20107;-61
2022/02/03 08:48:01;;;;;;;3.47;1.85;;;;;;;;;;5088074;28;20472;-61
2022/02/03 08:50:28;;;;;;;3.15;2.00;;;;;;;;;;5089248;28;20035;-61
2022/02/03 08:53:02;;;;;;;3.50;2.00;;;;;;;;;;5089171;28;20040;-61
2022/02/03 08:55:51;;;;;;;4.03;1.85;;;;;;;;;;5088987;28;20430;-61
2022/02/03 09:28:50;;;;;;;1.55;0.90;;;;;;;;;;5087277;28;20088;-66
2022/02/03 09:57:35;;;;;;;2.10;0.70;;;;;;;;;;5087229;28;20028;-65
2022/02/03 10:00:20;;;;;;;2.05;0.90;;;;;;;;;;5086564;28;20028;-65
2022/02/03 10:02:56;;;;;;;1.30;0.93;;;;;;;;;;5070549;28;20659;-65
2022/02/03 10:05:34;;;;;;;1.08;0.70;;;;;;;;;;5089256;28;20125;-65
2022/02/03 10:08:00;;;;;;;0.90;0.70;;;;;;;;;;5088580;28;20055;-65
2022/02/03 10:10:29;;;;;;;0.82;0.45;;;;;;;;;;5086744;28;20097;-65
2022/02/03 10:12:55;;;;;;;2.33;0.90;;;;;;;;;;5086529;28;20533;-65
2022/02/03 10:15:21;;;;;;;1.25;0.65;;;;;;;;;;5085977;28;20020;-65
2022/02/03 10:17:49;;;;;;;1.40;0.60;;;;;;;;;;5086778;28;20053;-65
2022/02/03 10:20:18;;;;;;;1.25;0.68;;;;;;;;;;5088652;28;20024;-65
2022/02/03 10:22:46;;;;;;;1.20;0.50;;;;;;;;;;5085897;28;20027;-65
2022/02/03 10:25:15;;;;;;;0.55;0.43;;;;;;;;;;5086583;28;20407;-65
2022/02/03 10:27:49;;;;;;;0.60;0.38;;;;;;;;;;5086365;28;20024;-65
2022/02/03 10:30:26;;;;;;;0.10;0.10;;;;;;;;;;5086275;28;20471;-65
2022/02/03 10:32:53;;;;;;;0.10;0.10;;;;;;;;;;5071277;28;20473;-65
2022/02/03 10:35:33;;;;;;;0.20;0.20;;;;;;;;;;5089119;28;20077;-65
2022/02/03 10:54:07;;;;;;;0.50;0.20;;;;;;;;;;5085921;28;20047;-65
2022/02/03 10:57:11;;;;;;;1.23;0.25;;;;;;;;;;5088069;28;20478;-65
2022/02/03 11:07:54;;;;;;;0.32;0.32;;;;;;;;;;5086286;28;20483;-65
2022/02/03 11:12:56;;;;;;;0.90;0.40;;;;;;;;;;5085696;28;20279;-64
2022/02/03 11:15:24;;;;;;;0.65;0.47;;;;;;;;;;5086030;28;20449;-64
2022/02/03 11:17:51;;;;;;;0.32;0.30;;;;;;;;;;5088259;28;20024;-65
2022/02/03 11:20:18;;;;;;;0.70;0.40;;;;;;;;;;5090169;28;20027;-64
2022/02/03 11:23:09;;;;;;;0.70;0.50;;;;;;;;;;5090305;28;20027;-65
2022/02/03 11:31:51;;;;;;;0.65;0.60;;;;;;;;;;5089470;28;20043;-64
2022/02/03 11:53:36;;;;;;;0.50;0.35;;;;;;;;;;5088081;28;20463;-65
2022/02/03 12:03:57;;;;;;;1.27;0.90;;;;;;;;;;5087231;28;20028;-68
2022/02/03 12:18:34;;;;;;;1.77;1.02;;;;;;;;;;5089178;28;20321;-68
2022/02/03 12:21:10;;;;;;;1.73;1.27;;;;;;;;;;5010492;28;20029;-66
2022/02/03 12:26:18;;;;;;;3.63;1.92;;;;;;;;;;5086907;28;20558;-67
2022/02/03 12:28:53;;;;;;;1.92;1.08;;;;;;;;;;5088110;28;20034;-67
2022/02/03 12:39:12;;;;;;;2.88;1.00;;;;;;;;;;5072372;28;20133;-68
2022/02/03 12:41:50;;;;;;;2.42;0.90;;;;;;;;;;5087349;28;20457;-68
2022/02/03 12:44:23;;;;;;;2.38;1.00;;;;;;;;;;5085650;28;20016;-68
2022/02/03 12:46:49;;;;;;;3.95;1.15;;;;;;;;;;5086801;28;20047;-68
2022/02/03 12:49:20;;;;;;;3.03;1.50;;;;;;;;;;5085579;28;20131;-68
2022/02/03 12:51:46;;;;;;;2.78;1.17;;;;;;;;;;5083581;28;20114;-69
2022/02/03 12:54:13;;;;;;;2.83;1.38;;;;;;;;;;5084280;28;20062;-69
2022/02/03 12:56:39;;;;;;;2.38;1.52;;;;;;;;;;5084741;28;20032;-67
2022/02/03 12:59:09;;;;;;;1.80;1.20;;;;;;;;;;5087087;28;20024;-67
2022/02/03 13:01:38;;;;;;;4.32;1.52;;;;;;;;;;5084901;28;20024;-67
2022/02/03 13:04:10;;;;;;;5.45;1.38;;;;;;;;;;5085248;28;20119;-67
2022/02/03 13:06:42;;;;;;;2.35;1.40;;;;;;;;;;5085861;28;20012;-67
2022/02/03 13:09:09;;;;;;;2.90;1.60;;;;;;;;;;5085503;28;20028;-68
2022/02/03 13:11:42;;;;;;;3.92;1.55;;;;;;;;;;5086271;28;20531;-68
2022/02/03 13:14:40;;;;;;;3.00;1.63;;;;;;;;;;5088888;28;20496;-68
2022/02/03 13:17:12;;;;;;;3.35;1.60;;;;;;;;;;5088661;28;20514;-68
2022/02/03 13:27:35;;;;;;;3.88;2.00;;;;;;;;;;5085151;28;20513;-68
2022/02/03 13:30:09;;;;;;;2.83;1.50;;;;;;;;;;5084501;28;20039;-67
2022/02/03 13:32:41;;;;;;;3.75;1.60;;;;;;;;;;5086129;28;20033;-68
2022/02/03 13:35:20;;;;;;;2.80;1.67;;;;;;;;;;5088239;28;20024;-68
2022/02/03 13:37:51;;;;;;;2.47;1.33;;;;;;;;;;5089924;28;20102;-68
2022/02/03 13:40:19;;;;;;;2.58;1.23;;;;;;;;;;5087118;28;20391;-68
2022/02/03 13:42:50;;;;;;;3.47;1.65;;;;;;;;;;5086590;28;20020;-68
2022/02/03 13:45:18;;;;;;;1.95;1.27;;;;;;;;;;5086713;28;20020;-68
2022/02/03 13:47:46;;;;;;;;;;;;;;;;;;5071727;28;20506;-67
2022/02/03 13:50:28;;;;;;;3.53;1.65;;;;;;;;;;5090682;28;20557;-68
2022/02/03 13:53:09;;;;;;;3.80;1.48;;;;;;;;;;5088038;28;20054;-68
2022/02/03 14:20:39;;;;;;;1.45;1.05;;;;;;;;;;5085371;28;20085;-67
2022/02/03 14:28:19;;;;;;;3.42;1.38;;;;;;;;;;5086230;28;20142;-69
2022/02/03 14:30:48;;;;;;;1.63;1.02;;;;;;;;;;5086536;28;20028;-69
2022/02/03 14:33:25;;;;;;;1.67;1.00;;;;;;;;;;5086660;28;20047;-69
2022/02/03 14:35:51;;;;;;;6.80;1.80;;;;;;;;;;5076566;28;20035;-67
2022/02/03 14:38:27;;;;;;;4.65;1.52;;;;;;;;;;5083384;28;20017;-68
2022/02/03 14:43:19;;;;;;;4.65;1.40;;;;;;;;;;5083387;28;20032;-67
2022/02/03 14:45:45;;;;;;;5.22;1.10;;;;;;;;;;5084063;28;20098;-67
2022/02/03 14:48:14;;;;;;;3.90;1.50;;;;;;;;;;5081551;28;20135;-67
2022/02/03 14:50:40;;;;;;;2.58;1.17;;;;;;;;;;5082497;28;20463;-67
2022/02/03 14:53:17;;;;;;;4.93;1.92;;;;;;;;;;5083117;28;20180;-66
2022/02/03 14:58:29;;;;;;;5.28;2.25;;;;;;;;;;5088876;28;20445;-66
2022/02/03 15:00:58;;;;;;;5.15;2.70;;;;;;;;;;5086732;28;20507;-66
2022/02/03 15:03:25;;;;;;;5.70;2.28;;;;;;;;;;5087014;28;20042;-67
2022/02/03 15:05:57;;;;;;;5.70;3.17;;;;;;;;;;5083283;28;20425;-66
2022/02/03 15:11:11;;;;;;;8.57;4.90;;;;;;;;;;5091935;28;20032;-67
2022/02/03 15:13:41;;;;;;;8.60;4.82;;;;;;;;;;5088951;28;20427;-67
2022/02/03 15:16:08;;;;;;;10.75;6.80;;;;;;;;;;5089701;28;20024;-69
2022/02/03 15:18:34;;;;;;;10.25;5.60;;;;;;;;;;5089101;28;20020;-66
2022/02/03 15:21:00;;;;;;;8.00;3.63;;;;;;;;;;5090270;28;20107;-66
2022/02/03 15:23:27;;;;;;;9.80;4.72;;;;;;;;;;5091959;28;20044;-67
2022/02/03 15:25:53;;;;;;;8.32;4.93;;;;;;;;;;5090688;28;20024;-67
2022/02/03 15:28:19;;;;;;;8.63;5.35;;;;;;;;;;5089794;28;20484;-67
2022/02/03 15:30:45;;;;;;;9.85;5.60;;;;;;;;;;5088794;28;20024;-66
2022/02/03 15:33:12;;;;;;;8.45;5.32;;;;;;;;;;5089296;28;20406;-67
2022/02/03 15:35:46;;;;;;;7.13;4.60;;;;;;;;;;5090441;28;20040;-67
2022/02/03 15:38:16;;;;;;;9.15;4.70;;;;;;;;;;5088260;28;20115;-66
2022/02/03 15:40:43;;;;;;;9.65;4.97;;;;;;;;;;5090529;28;20055;-67
2022/02/03 15:45:50;;;;;;;10.20;5.28;;;;;;;;;;5089039;28;20605;-66
2022/02/03 16:02:08;;;;;;;11.75;6.82;;;;;;;;;;5088834;28;20020;-65
2022/02/03 16:18:10;;;;;;;10.13;5.45;;;;;;;;;;5087014;28;20654;-63
2022/02/03 16:21:16;;;;;;;12.07;6.40;;;;;;;;;;5088367;28;20461;-64
2022/02/03 16:26:38;;;;;;;13.20;6.63;;;;;;;;;;5089453;28;20088;-64
2022/02/03 16:51:17;;;;;;;10.65;5.78;;;;;;;;;;5061795;28;20032;-67
2022/02/03 16:53:43;;;;;;;11.40;5.82;;;;;;;;;;5078778;28;20071;-66
2022/02/03 16:56:11;;;;;;;9.77;5.70;;;;;;;;;;5082923;28;20052;-66
2022/02/03 16:58:40;;;;;;;10.95;5.45;;;;;;;;;;5082669;28;20016;-65
2022/02/03 17:01:06;;;;;;;10.77;6.13;;;;;;;;;;5082208;28;20039;-66
2022/02/03 17:03:32;;;;;;;9.35;5.88;;;;;;;;;;5079733;28;20032;-60
2022/02/03 17:05:59;;;;;;;12.07;6.72;;;;;;;;;;5079996;28;20032;-65
2022/02/03 17:08:24;;;;;;;12.57;6.85;;;;;;;;;;5078959;28;20062;-64
2022/02/03 17:10:51;;;;;;;12.07;6.78;;;;;;;;;;5078777;28;20056;-65
2022/02/03 17:13:17;;;;;;;8.75;5.10;;;;;;;;;;5084276;28;20036;-64
2022/02/03 17:15:43;;;;;;;11.50;5.53;;;;;;;;;;5085098;28;20024;-66
2022/02/03 17:18:10;;;;;;;13.05;8.15;;;;;;;;;;5082011;28;20032;-69
2022/02/03 17:20:37;;;;;;;15.30;7.35;;;;;;;;;;5081290;28;20032;-71
2022/02/03 17:23:06;;;;;;;16.15;7.30;;;;;;;;;;5083941;28;20020;-68
2022/02/03 17:25:42;;;;;;;12.65;7.35;;;;;;;;;;5085117;28;20049;-67
2022/02/03 17:28:16;;;;;;;13.05;7.10;;;;;;;;;;5082763;28;20031;-66
2022/02/03 17:31:00;;;;;;;11.25;6.30;;;;;;;;;;5079568;28;20395;-66
2022/02/03 18:08:54;;;;;;;16.40;9.68;;;;;;;;;;5087861;28;20061;-70
2022/02/03 18:11:32;;;;;;;18.52;12.35;;;;;;;;;;5085884;28;20439;-70
2022/02/03 18:33:06;;;;;;;18.98;10.57;;;;;;;;;;5092435;28;20044;-70
2022/02/03 18:36:02;;;;;;;17.77;10.80;;;;;;;;;;5092003;28;20028;-70
2022/02/03 18:56:59;;;;;;;14.38;8.95;;;;;;;;;;5060939;28;20032;-71
2022/02/03 19:16:03;;;;;;;22.15;12.00;;;;;;;;;;5089395;28;20039;-71
2022/02/03 19:57:10;;;;;;;16.10;9.95;;;;;;;;;;5082759;28;20062;-75
2022/02/03 20:02:37;;;;;;;17.60;10.73;;;;;;;;;;5083872;28;20078;-69
2022/02/03 20:05:03;;;;;;;21.45;12.35;;;;;;;;;;5083118;28;20119;-69
2022/02/03 20:08:11;;;;;;;18.83;11.93;;;;;;;;;;5083431;28;20039;-70
2022/02/03 20:10:36;;;;;;;20.55;11.80;;;;;;;;;;5079496;28;20033;-68
2022/02/03 20:13:02;;;;;;;21.58;11.52;;;;;;;;;;5082941;28;20040;-68
2022/02/03 20:15:28;;;;;;;21.02;12.57;;;;;;;;;;5080589;28;20085;-70
2022/02/03 20:17:55;;;;;;;23.75;15.65;;;;;;;;;;5082046;28;20447;-69
2022/02/03 20:20:21;;;;;;;20.83;12.63;;;;;;;;;;5083652;28;20019;-73
2022/02/03 20:22:48;;;;;;;18.60;11.52;;;;;;;;;;5083086;28;20134;-74
2022/02/03 20:25:15;;;;;;;20.67;12.57;;;;;;;;;;5083529;28;20028;-72
2022/02/03 20:27:41;;;;;;;19.88;12.80;;;;;;;;;;5081418;28;20025;-70
2022/02/03 20:30:07;;;;;;;21.77;14.07;;;;;;;;;;5082236;28;20032;-73
2022/02/03 20:32:35;;;;;;;29.02;15.65;;;;;;;;;;5082315;28;20024;-74
2022/02/03 20:35:01;;;;;;;20.13;11.40;;;;;;;;;;5081575;28;20368;-74
2022/02/03 20:37:26;;;;;;;18.55;10.60;;;;;;;;;;5082832;28;20085;-72
2022/02/03 20:39:53;;;;;;;20.13;11.65;;;;;;;;;;5083114;28;20027;-72
2022/02/03 20:42:19;;;;;;;22.20;11.48;;;;;;;;;;5082509;28;20030;-73
2022/02/03 20:44:49;;;;;;;19.55;10.98;;;;;;;;;;5081396;28;20035;-72
2022/02/03 20:47:15;;;;;;;23.88;13.57;;;;;;;;;;5081165;28;20016;-71
2022/02/03 20:49:42;;;;;;;26.38;14.32;;;;;;;;;;5084130;28;20069;-72
2022/02/03 20:52:08;;;;;;;19.75;11.23;;;;;;;;;;5084216;28;20028;-72
2022/02/03 20:54:35;;;;;;;22.13;12.82;;;;;;;;;;5084748;28;20076;-72
2022/02/03 20:57:01;;;;;;;20.45;11.63;;;;;;;;;;5081520;28;20020;-73
2022/02/03 20:59:51;;;;;;;18.23;11.50;;;;;;;;;;5081971;28;20153;-72
2022/02/03 21:02:22;;;;;;;19.75;11.00;;;;;;;;;;5084494;28;20028;-72
2022/02/03 21:07:46;;;;;;;19.08;10.63;;;;;;;;;;5076677;28;20040;-72
2022/02/03 21:10:15;;;;;;;19.67;12.10;;;;;;;;;;5087441;28;20031;-72
2022/02/03 21:12:41;;;;;;;21.17;11.43;;;;;;;;;;5087036;28;20040;-72
2022/02/03 21:15:09;;;;;;;18.33;10.65;;;;;;;;;;5087207;28;20024;-72
2022/02/03 21:17:35;;;;;;;19.60;11.50;;;;;;;;;;5087504;28;20035;-72
2022/02/03 21:20:12;;;;;;;17.58;10.95;;;;;;;;;;5090660;28;20093;-72
2022/02/03 21:22:38;;;;;;;19.35;10.90;;;;;;;;;;5088672;28;20471;-72
2022/02/03 21:25:14;;;;;;;18.70;10.57;;;;;;;;;;5087011;28;20028;-72
2022/02/03 21:27:40;;;;;;;17.40;10.27;;;;;;;;;;5088402;28;20097;-72
2022/02/03 21:30:07;;;;;;;20.30;10.32;;;;;;;;;;5088625;28;20094;-72
2022/02/03 21:32:33;;;;;;;16.98;9.57;;;;;;;;;;5087365;28;20012;-72
2022/02/03 21:34:59;;;;;;;23.02;11.45;;;;;;;;;;5090773;28;20351;-71
2022/02/03 21:37:25;;;;;;;20.85;13.45;;;;;;;;;;5088365;28;20020;-72
2022/02/03 21:39:54;;;;;;;25.80;14.73;;;;;;;;;;5087792;28;20024;-72
2022/02/03 21:42:21;;;;;;;24.75;14.20;;;;;;;;;;5087068;28;20032;-73
2022/02/03 21:44:47;;;;;;;22.25;12.18;;;;;;;;;;5086863;28;20403;-74
2022/02/03 21:47:13;;;;;;;15.73;10.27;;;;;;;;;;5090622;28;20034;-72
2022/02/03 21:49:39;;;;;;;14.80;8.57;;;;;;;;;;5085103;28;20020;-72
2022/02/03 21:52:05;;;;;;;15.68;9.25;;;;;;;;;;5088226;28;20123;-72
2022/02/03 21:54:34;;;;;;;15.73;9.27;;;;;;;;;;5087959;28;20475;-72
2022/02/03 21:57:02;;;;;;;17.63;10.15;;;;;;;;;;5086764;28;20049;-72
2022/02/03 21:59:28;;;;;;;18.98;9.98;;;;;;;;;;5089449;28;20063;-72
2022/02/03 22:01:54;;;;;;;15.63;8.75;;;;;;;;;;5088074;28;20055;-72
2022/02/03 22:04:20;;;;;;;16.38;10.13;;;;;;;;;;5085722;28;20028;-72
2022/02/03 22:06:46;;;;;;;15.85;8.48;;;;;;;;;;5086851;28;20020;-72
2022/02/03 22:09:12;;;;;;;15.63;8.93;;;;;;;;;;5086748;28;20395;-71
2022/02/03 22:11:39;;;;;;;17.90;9.13;;;;;;;;;;5087611;28;20032;-71
2022/02/03 22:14:05;;;;;;;18.77;10.77;;;;;;;;;;5089094;28;20139;-72
2022/02/03 22:16:34;;;;;;;20.45;11.48;;;;;;;;;;5086535;28;20138;-71
2022/02/03 22:19:01;;;;;;;17.70;10.98;;;;;;;;;;5087982;28;20066;-72
2022/02/03 22:27:55;;;;;;;21.98;9.63;;;;;;;;;;5035584;28;20025;-71
2022/02/03 22:43:34;;;;;;;17.70;10.35;;;;;;;;;;5086698;28;20089;-72
2022/02/03 22:46:13;;;;;;;17.77;8.68;;;;;;;;;;5085992;28;20038;-72
2022/02/03 22:48:39;;;;;;;15.65;8.00;;;;;;;;;;5085021;28;20040;-72
2022/02/03 22:51:06;;;;;;;18.67;10.57;;;;;;;;;;5086186;28;20079;-72
2022/02/03 22:53:33;;;;;;;16.20;9.90;;;;;;;;;;5088262;28;20032;-71
2022/02/03 22:56:19;;;;;;;23.83;11.75;;;;;;;;;;5087885;28;20481;-73
2022/02/03 23:01:23;;;;;;;19.20;10.75;;;;;;;;;;5086307;28;20344;-72
2022/02/03 23:03:48;;;;;;;17.80;10.73;;;;;;;;;;5080442;28;20061;-72
2022/02/03 23:06:15;;;;;;;16.65;10.25;;;;;;;;;;5086631;28;20047;-73
2022/02/03 23:11:38;;;;;;;19.30;11.43;;;;;;;;;;5085635;28;20028;-74
2022/02/03 23:23:52;;;;;;;15.57;9.68;;;;;;;;;;5089161;28;20041;-73
2022/02/03 23:26:21;;;;;;;16.95;9.98;;;;;;;;;;5093111;28;20020;-73
2022/02/03 23:28:47;;;;;;;15.68;8.10;;;;;;;;;;5090310;28;20481;-73
2022/02/03 23:31:13;;;;;;;19.80;10.13;;;;;;;;;;5089928;28;20027;-73
2022/02/03 23:33:39;;;;;;;17.10;9.40;;;;;;;;;;5089113;28;20553;-74
2022/02/03 23:36:05;;;;;;;18.90;10.10;;;;;;;;;;5088211;28;20032;-73
